createdAt,value
2023-05-06T00:01:25.645Z,2.10
2023-05-06T00:03:52.494Z,2.00
2023-05-06T00:06:19.538Z,1.40
2023-05-06T00:08:46.800Z,1.70
2023-05-06T00:11:13.854Z,1.60
2023-05-06T00:13:41.472Z,2.20
2023-05-06T00:16:08.356Z,1.77
2023-05-06T00:18:35.818Z,1.80
2023-05-06T00:21:02.540Z,2.00
2023-05-06T00:23:29.502Z,1.43
2023-05-06T00:25:56.514Z,1.80
2023-05-06T00:28:23.305Z,1.90
2023-05-06T00:30:50.574Z,1.73
2023-05-06T00:33:17.310Z,2.27
2023-05-06T00:35:44.154Z,2.00
2023-05-06T00:38:15.595Z,2.10
2023-05-06T00:40:42.672Z,2.10
2023-05-06T00:43:10.069Z,1.90
2023-05-06T00:45:37.324Z,2.90
2023-05-06T00:48:08.104Z,2.60
2023-05-06T00:50:35.829Z,2.30
2023-05-06T00:53:05.894Z,1.90
2023-05-06T00:55:32.812Z,2.17
2023-05-06T00:57:59.710Z,2.33
2023-05-06T01:00:26.885Z,1.80
2023-05-06T01:02:53.935Z,1.97
2023-05-06T01:05:23.836Z,1.90
2023-05-06T01:07:51.176Z,1.90
2023-05-06T01:10:20.916Z,1.70
2023-05-06T01:12:59.809Z,1.97
2023-05-06T01:15:44.779Z,1.60
2023-05-06T01:18:16.037Z,2.23
2023-05-06T01:20:47.691Z,1.73
2023-05-06T01:23:14.886Z,1.93
2023-05-06T01:25:42.062Z,1.80
2023-05-06T01:28:13.260Z,1.70
2023-05-06T01:30:54.963Z,1.30
2023-05-06T01:34:09.456Z,1.50
2023-05-06T01:37:01.377Z,1.47
2023-05-06T01:39:31.161Z,1.23
2023-05-06T01:42:02.209Z,1.40
2023-05-06T01:44:33.590Z,1.70
2023-05-06T01:47:02.671Z,1.87
2023-05-06T01:49:30.332Z,1.90
2023-05-06T01:51:58.027Z,1.67
2023-05-06T01:54:25.211Z,1.60
2023-05-06T01:56:51.948Z,1.60
2023-05-06T01:59:18.667Z,1.47
2023-05-06T02:01:45.557Z,1.60
2023-05-06T02:04:12.449Z,1.73
2023-05-06T02:06:39.530Z,1.60
2023-05-06T02:09:06.751Z,1.40
2023-05-06T02:11:38.608Z,2.07
2023-05-06T02:14:07.053Z,1.90
2023-05-06T02:16:35.681Z,1.50
2023-05-06T02:19:02.877Z,1.50
2023-05-06T02:21:29.668Z,1.60
2023-05-06T02:23:56.370Z,1.40
2023-05-06T02:26:23.268Z,1.87
2023-05-06T02:28:50.497Z,1.63
2023-05-06T02:31:17.869Z,1.43
2023-05-06T02:33:45.944Z,1.20
2023-05-06T02:36:12.905Z,1.40
2023-05-06T02:38:39.572Z,1.50
2023-05-06T02:41:06.829Z,1.70
2023-05-06T02:43:33.550Z,1.47
2023-05-06T02:46:00.407Z,1.60
2023-05-06T02:48:27.412Z,1.30
2023-05-06T02:50:54.081Z,1.90
2023-05-06T02:53:21.260Z,1.33
2023-05-06T02:55:48.345Z,1.60
2023-05-06T02:58:15.143Z,1.60
2023-05-06T03:00:42.014Z,1.90
2023-05-06T03:03:10.010Z,1.47
2023-05-06T03:05:37.284Z,1.73
2023-05-06T03:08:04.229Z,1.70
2023-05-06T03:10:32.149Z,1.47
2023-05-06T03:13:00.142Z,1.40
2023-05-06T03:15:28.310Z,1.50
2023-05-06T03:17:55.316Z,1.63
2023-05-06T03:20:23.034Z,2.03
2023-05-06T03:22:54.119Z,1.60
2023-05-06T03:25:22.379Z,1.50
2023-05-06T03:27:49.481Z,1.63
2023-05-06T03:30:19.832Z,1.53
2023-05-06T03:32:48.908Z,1.50
2023-05-06T03:35:22.798Z,2.00
2023-05-06T03:37:53.631Z,1.63
2023-05-06T03:40:22.928Z,2.20
2023-05-06T03:42:51.181Z,1.90
2023-05-06T03:45:19.025Z,1.63
2023-05-06T03:47:46.794Z,1.80
2023-05-06T03:50:14.076Z,2.10
2023-05-06T03:52:41.973Z,2.13
2023-05-06T03:55:10.472Z,2.10
2023-05-06T03:57:38.977Z,2.20
2023-05-06T04:00:07.835Z,2.10
2023-05-06T04:02:43.081Z,1.90
2023-05-06T04:05:14.488Z,2.33
2023-05-06T04:07:41.678Z,2.37
2023-05-06T04:10:09.185Z,2.20
2023-05-06T04:12:36.783Z,2.17
2023-05-06T04:15:04.439Z,1.90
2023-05-06T04:17:31.519Z,1.80
2023-05-06T04:19:58.721Z,2.10
2023-05-06T04:22:25.822Z,2.13
2023-05-06T04:24:53.755Z,2.03
2023-05-06T04:27:20.770Z,2.00
2023-05-06T04:29:47.821Z,1.83
2023-05-06T04:32:18.101Z,1.97
2023-05-06T04:34:47.404Z,2.30
2023-05-06T04:37:15.918Z,2.50
2023-05-06T04:39:47.650Z,1.93
2023-05-06T04:42:16.205Z,2.03
2023-05-06T04:44:50.293Z,2.20
2023-05-06T04:47:20.489Z,2.10
2023-05-06T04:49:50.614Z,2.20
2023-05-06T04:52:18.038Z,2.50
2023-05-06T04:54:45.723Z,3.83
2023-05-06T04:57:12.918Z,2.67
2023-05-06T04:59:42.777Z,2.13
2023-05-06T05:02:09.872Z,2.60
2023-05-06T05:04:37.204Z,1.87
2023-05-06T05:07:04.589Z,2.20
2023-05-06T05:09:32.248Z,1.85
2023-05-06T05:12:01.396Z,2.10
2023-05-06T05:14:29.950Z,2.50
2023-05-06T05:16:57.447Z,2.47
2023-05-06T05:19:24.561Z,2.53
2023-05-06T05:21:52.622Z,2.10
2023-05-06T05:24:20.419Z,2.00
2023-05-06T05:26:47.236Z,2.30
2023-05-06T05:29:15.520Z,1.73
2023-05-06T05:31:43.105Z,1.88
2023-05-06T05:34:10.367Z,2.60
2023-05-06T05:36:37.440Z,2.50
2023-05-06T05:39:07.556Z,1.85
2023-05-06T05:41:38.888Z,1.80
2023-05-06T05:44:06.021Z,1.83
2023-05-06T05:46:32.878Z,1.48
2023-05-06T05:49:00.779Z,1.40
2023-05-06T05:51:28.041Z,1.25
2023-05-06T05:53:57.007Z,1.17
2023-05-06T05:56:25.243Z,1.50
2023-05-06T05:58:51.978Z,1.30
2023-05-06T06:01:19.776Z,1.17
2023-05-06T06:03:47.759Z,1.48
2023-05-06T06:06:14.870Z,1.30
2023-05-06T06:08:41.852Z,1.15
2023-05-06T06:11:09.310Z,1.42
2023-05-06T06:13:40.233Z,1.10
2023-05-06T06:16:08.079Z,1.40
2023-05-06T06:18:35.128Z,1.35
2023-05-06T06:21:02.552Z,1.60
2023-05-06T06:23:29.641Z,1.52
2023-05-06T06:25:56.603Z,1.63
2023-05-06T06:28:23.352Z,1.70
2023-05-06T06:30:50.363Z,1.50
2023-05-06T06:33:17.468Z,1.50
2023-05-06T06:35:44.259Z,1.50
2023-05-06T06:38:11.693Z,1.73
2023-05-06T06:40:38.403Z,1.80
2023-05-06T06:43:05.300Z,1.80
2023-05-06T06:45:58.219Z,2.10
2023-05-06T06:48:25.151Z,1.88
2023-05-06T06:50:52.138Z,2.33
2023-05-06T06:53:19.061Z,1.88
2023-05-06T06:55:46.258Z,1.90
2023-05-06T06:58:13.462Z,2.00
2023-05-06T07:00:40.523Z,2.13
2023-05-06T07:03:07.349Z,2.15
2023-05-06T07:05:34.399Z,3.10
2023-05-06T07:08:01.273Z,2.50
2023-05-06T07:10:28.385Z,1.88
2023-05-06T07:12:55.244Z,2.28
2023-05-06T07:15:22.189Z,2.53
2023-05-06T07:17:48.894Z,2.30
2023-05-06T07:20:16.368Z,2.78
2023-05-06T07:22:45.570Z,2.40
2023-05-06T07:25:12.770Z,3.33
2023-05-06T07:27:39.991Z,3.10
2023-05-06T07:30:08.070Z,3.25
2023-05-06T07:32:35.646Z,2.97
2023-05-06T07:35:02.843Z,2.80
2023-05-06T07:37:30.014Z,2.63
2023-05-06T07:39:57.395Z,3.20
2023-05-06T07:42:24.243Z,3.63
2023-05-06T07:44:51.046Z,3.10
2023-05-06T07:47:28.526Z,3.08
2023-05-06T07:49:56.136Z,3.30
2023-05-06T07:52:24.081Z,3.42
2023-05-06T07:54:51.324Z,3.70
2023-05-06T07:57:18.077Z,3.53
2023-05-06T07:59:48.101Z,3.72
2023-05-06T08:02:15.459Z,3.40
2023-05-06T08:04:43.088Z,3.20
2023-05-06T08:07:11.200Z,3.20
2023-05-06T08:09:38.028Z,3.20
2023-05-06T08:12:05.430Z,2.90
2023-05-06T08:14:32.414Z,3.25
2023-05-06T08:16:59.715Z,3.83
2023-05-06T08:19:26.801Z,3.63
2023-05-06T08:21:54.298Z,3.17
2023-05-06T08:24:21.549Z,3.22
2023-05-06T08:26:48.358Z,3.70
2023-05-06T08:29:15.079Z,4.05
2023-05-06T08:31:43.750Z,4.50
2023-05-06T08:34:10.791Z,3.67
2023-05-06T08:36:37.944Z,4.05
2023-05-06T08:39:04.750Z,4.45
2023-05-06T08:41:34.459Z,5.28
2023-05-06T08:44:03.575Z,5.78
2023-05-06T08:46:31.177Z,4.68
2023-05-06T08:49:01.527Z,5.63
2023-05-06T08:51:33.076Z,5.50
2023-05-06T08:54:04.104Z,5.05
2023-05-06T08:56:33.958Z,4.47
2023-05-06T08:59:01.486Z,4.38
2023-05-06T09:01:28.807Z,4.13
2023-05-06T09:03:58.354Z,4.65
2023-05-06T09:06:27.183Z,4.57
2023-05-06T09:08:54.804Z,4.13
2023-05-06T09:11:26.095Z,4.18
2023-05-06T09:14:12.923Z,4.20
2023-05-06T09:16:42.766Z,4.00
2023-05-06T09:19:09.831Z,3.47
2023-05-06T09:21:39.247Z,3.45
2023-05-06T09:24:13.802Z,3.70
2023-05-06T09:26:42.885Z,3.08
2023-05-06T09:29:09.982Z,3.35
2023-05-06T09:31:46.100Z,3.72
2023-05-06T09:34:14.793Z,3.83
2023-05-06T09:36:41.899Z,2.80
2023-05-06T09:39:10.201Z,2.65
2023-05-06T09:42:25.419Z,2.65
2023-05-06T09:44:55.067Z,2.65
2023-05-06T09:47:28.680Z,2.20
2023-05-06T09:50:01.463Z,2.50
2023-05-06T09:52:55.239Z,2.45
2023-05-06T09:55:27.253Z,2.42
2023-05-06T09:58:43.995Z,2.15
2023-05-06T10:01:17.057Z,2.33
2023-05-06T10:03:51.726Z,2.17
2023-05-06T10:06:20.052Z,2.08
2023-05-06T10:08:48.147Z,2.20
2023-05-06T10:11:15.906Z,2.00
2023-05-06T10:13:44.517Z,2.03
2023-05-06T10:16:14.572Z,1.98
2023-05-06T10:18:45.984Z,1.70
2023-05-06T10:21:21.975Z,1.85
2023-05-06T10:24:07.734Z,2.13
2023-05-06T10:26:38.881Z,2.40
2023-05-06T10:29:09.596Z,1.92
2023-05-06T10:31:44.319Z,1.92
2023-05-06T10:34:11.560Z,2.20
2023-05-06T10:36:39.458Z,1.85
2023-05-06T10:39:10.636Z,3.20
2023-05-06T10:41:38.504Z,1.52
2023-05-06T10:44:06.172Z,1.70
2023-05-06T10:46:59.897Z,1.70
2023-05-06T10:49:27.833Z,1.60
2023-05-06T10:52:15.398Z,2.95
2023-05-06T10:54:51.874Z,1.30
2023-05-06T10:57:20.883Z,1.50
2023-05-06T10:59:48.818Z,1.52
2023-05-06T11:02:20.885Z,1.33
2023-05-06T11:04:53.047Z,2.13
2023-05-06T11:07:24.120Z,1.73
2023-05-06T11:10:02.124Z,1.88
2023-05-06T11:12:52.855Z,1.40
2023-05-06T11:15:24.509Z,1.65
2023-05-06T11:17:52.436Z,1.40
2023-05-06T11:20:23.474Z,1.40
2023-05-06T11:22:50.466Z,23.27
2023-05-06T11:25:53.676Z,3.58
2023-05-06T11:28:20.638Z,1.65
2023-05-06T11:30:56.266Z,1.35
2023-05-06T11:33:27.798Z,1.02
2023-05-06T11:35:54.522Z,1.85
2023-05-06T11:38:21.318Z,2.17
2023-05-06T11:40:49.400Z,1.50
2023-05-06T11:43:17.505Z,2.03
2023-05-06T11:45:48.552Z,1.70
2023-05-06T11:48:17.237Z,1.90
2023-05-06T11:50:46.105Z,1.65
2023-05-06T11:53:23.384Z,1.67
2023-05-06T11:55:53.228Z,1.40
2023-05-06T11:58:25.229Z,1.50
2023-05-06T12:00:57.530Z,1.70
2023-05-06T12:03:25.904Z,1.63
2023-05-06T12:05:53.648Z,1.67
2023-05-06T12:08:27.910Z,1.90
2023-05-06T12:10:59.337Z,2.08
2023-05-06T12:13:27.549Z,2.03
2023-05-06T12:15:55.579Z,1.60
2023-05-06T12:18:23.836Z,1.60
2023-05-06T12:20:53.480Z,1.70
2023-05-06T12:23:21.908Z,2.80
2023-05-06T12:26:02.399Z,1.60
2023-05-06T12:28:30.354Z,1.95
2023-05-06T12:30:57.126Z,2.55
2023-05-06T12:33:24.015Z,1.85
2023-05-06T12:35:57.065Z,1.67
2023-05-06T12:38:24.058Z,1.80
2023-05-06T12:40:55.164Z,1.85
2023-05-06T12:43:32.627Z,2.20
2023-05-06T12:46:04.937Z,2.17
2023-05-06T12:48:31.991Z,2.30
2023-05-06T12:50:58.942Z,2.63
2023-05-06T12:53:34.086Z,2.70
2023-05-06T12:56:01.052Z,2.20
2023-05-06T12:58:28.253Z,2.00
2023-05-06T13:00:55.013Z,1.83
2023-05-06T13:03:21.854Z,1.80
2023-05-06T13:05:50.329Z,1.77
2023-05-06T13:08:17.242Z,1.77
2023-05-06T13:10:44.021Z,1.70
2023-05-06T13:13:10.724Z,1.35
2023-05-06T13:15:37.800Z,1.83
2023-05-06T13:18:05.206Z,1.50
2023-05-06T13:20:32.704Z,1.65
2023-05-06T13:22:59.594Z,1.67
2023-05-06T13:25:26.355Z,1.58
2023-05-06T13:27:53.322Z,2.10
2023-05-06T13:30:20.185Z,2.03
2023-05-06T13:32:47.434Z,2.00
2023-05-06T13:35:14.415Z,1.50
2023-05-06T13:37:41.154Z,1.80
2023-05-06T13:40:08.800Z,2.10
2023-05-06T13:42:36.515Z,2.22
2023-05-06T13:45:03.293Z,2.47
2023-05-06T13:47:30.030Z,2.08
2023-05-06T13:49:56.751Z,1.85
2023-05-06T13:52:24.048Z,1.65
2023-05-06T13:54:50.752Z,1.45
2023-05-06T13:57:19.100Z,1.65
2023-05-06T13:59:46.073Z,1.70
2023-05-06T14:02:14.016Z,1.75
2023-05-06T14:04:41.105Z,1.58
2023-05-06T14:07:07.860Z,1.92
2023-05-06T14:09:34.623Z,1.67
2023-05-06T14:12:01.470Z,1.75
2023-05-06T14:14:28.806Z,1.42
2023-05-06T14:16:55.776Z,1.40
2023-05-06T14:19:22.506Z,1.60
2023-05-06T14:21:50.956Z,1.80
2023-05-06T14:24:17.690Z,1.67
2023-05-06T14:26:46.339Z,1.92
2023-05-06T14:29:13.154Z,2.50
2023-05-06T14:31:40.275Z,1.85
2023-05-06T14:34:07.312Z,1.40
2023-05-06T14:36:34.269Z,1.40
2023-05-06T14:39:01.305Z,1.70
2023-05-06T14:41:28.217Z,1.58
2023-05-06T14:43:55.266Z,1.60
2023-05-06T14:46:22.106Z,1.63
2023-05-06T14:48:48.823Z,1.55
2023-05-06T14:51:15.565Z,1.73
2023-05-06T14:53:42.427Z,1.58
2023-05-06T14:56:10.622Z,1.30
2023-05-06T14:58:37.489Z,2.00
2023-05-06T15:01:04.238Z,2.17
2023-05-06T15:03:31.110Z,2.40
2023-05-06T15:05:58.331Z,2.08
2023-05-06T15:08:26.391Z,2.22
2023-05-06T15:10:53.327Z,2.30
2023-05-06T15:13:20.314Z,1.73
2023-05-06T15:15:47.134Z,2.13
2023-05-06T15:18:14.307Z,2.03
2023-05-06T15:20:41.039Z,2.15
2023-05-06T15:23:07.767Z,1.95
2023-05-06T15:25:36.101Z,2.00
2023-05-06T15:28:05.122Z,1.80
2023-05-06T15:30:32.068Z,1.60
2023-05-06T15:32:58.988Z,1.98
2023-05-06T15:35:25.910Z,2.10
2023-05-06T15:37:59.735Z,2.42
2023-05-06T15:40:27.075Z,2.10
2023-05-06T15:42:54.177Z,2.15
2023-05-06T15:45:21.987Z,2.05
2023-05-06T15:47:49.054Z,1.75
2023-05-06T15:50:25.255Z,1.83
2023-05-06T15:52:58.749Z,2.10
2023-05-06T15:55:26.568Z,3.00
2023-05-06T15:57:54.842Z,2.40
2023-05-06T16:00:22.345Z,2.22
2023-05-06T16:02:49.413Z,2.40
2023-05-06T16:05:16.563Z,2.17
2023-05-06T16:07:43.964Z,2.72
2023-05-06T16:10:11.492Z,2.50
2023-05-06T16:12:38.518Z,2.58
2023-05-06T16:15:05.984Z,2.22
2023-05-06T16:17:37.484Z,2.60
2023-05-06T16:20:05.562Z,3.38
2023-05-06T16:22:32.604Z,2.53
2023-05-06T16:24:59.312Z,4.07
2023-05-06T16:27:28.288Z,2.50
2023-05-06T16:29:55.862Z,4.22
2023-05-06T16:32:23.474Z,3.78
2023-05-06T16:34:50.796Z,4.28
2023-05-06T16:37:17.668Z,3.25
2023-05-06T16:39:44.322Z,2.60
2023-05-06T16:42:11.344Z,2.40
2023-05-06T16:44:38.037Z,2.72
2023-05-06T16:47:04.797Z,2.10
2023-05-06T16:49:33.846Z,2.90
2023-05-06T16:52:00.812Z,2.70
2023-05-06T16:54:27.570Z,2.47
2023-05-06T16:56:54.835Z,2.60
2023-05-06T16:59:22.598Z,2.47
2023-05-06T17:01:50.400Z,1.80
2023-05-06T17:04:17.275Z,2.20
2023-05-06T17:06:44.589Z,2.00
2023-05-06T17:09:12.185Z,2.28
2023-05-06T17:11:38.924Z,2.22
2023-05-06T17:14:05.951Z,2.22
2023-05-06T17:16:33.047Z,2.50
2023-05-06T17:18:59.898Z,2.22
2023-05-06T17:21:27.882Z,2.10
2023-05-06T17:23:54.633Z,2.05
2023-05-06T17:26:22.146Z,2.17
2023-05-06T17:28:51.082Z,2.28
2023-05-06T17:31:18.441Z,2.60
2023-05-06T17:33:45.998Z,2.58
2023-05-06T17:36:13.854Z,2.33
2023-05-06T17:38:40.742Z,2.45
2023-05-06T17:41:07.543Z,2.25
2023-05-06T17:43:34.606Z,2.28
2023-05-06T17:46:01.758Z,2.70
2023-05-06T17:48:28.638Z,2.70
2023-05-06T17:51:00.961Z,2.78
2023-05-06T17:53:28.304Z,2.63
2023-05-06T17:55:55.129Z,2.30
2023-05-06T17:58:21.966Z,2.70
2023-05-06T18:00:48.733Z,2.72
2023-05-06T18:03:16.143Z,2.30
2023-05-06T18:05:42.900Z,2.97
2023-05-06T18:08:09.880Z,2.42
2023-05-06T18:10:36.749Z,2.97
2023-05-06T18:13:03.959Z,2.70
2023-05-06T18:15:31.396Z,2.78
2023-05-06T18:17:58.199Z,3.00
2023-05-06T18:20:25.109Z,2.50
2023-05-06T18:22:52.246Z,2.83
2023-05-06T18:25:19.151Z,3.35
2023-05-06T18:27:47.395Z,2.78
2023-05-06T18:30:16.223Z,2.90
2023-05-06T18:32:42.999Z,3.20
2023-05-06T18:35:13.713Z,3.05
2023-05-06T18:37:41.600Z,3.25
2023-05-06T18:40:09.262Z,7.53
2023-05-06T18:42:36.140Z,3.08
2023-05-06T18:45:05.219Z,3.28
2023-05-06T18:47:32.537Z,2.97
2023-05-06T18:50:00.759Z,3.08
2023-05-06T18:52:28.582Z,3.08
2023-05-06T18:54:55.583Z,3.25
2023-05-06T18:57:23.572Z,3.70
2023-05-06T18:59:50.371Z,3.50
2023-05-06T19:02:17.433Z,3.28
2023-05-06T19:04:44.220Z,3.75
2023-05-06T19:07:12.798Z,3.15
2023-05-06T19:09:42.572Z,3.17
2023-05-06T19:12:09.324Z,3.28
2023-05-06T19:14:36.207Z,3.63
2023-05-06T19:17:04.672Z,4.15
2023-05-06T19:19:31.997Z,3.72
2023-05-06T19:21:59.781Z,3.55
2023-05-06T19:24:26.851Z,3.78
2023-05-06T19:26:53.730Z,3.22
2023-05-06T19:29:20.808Z,3.10
2023-05-06T19:31:47.748Z,3.35
2023-05-06T19:34:14.523Z,3.38
2023-05-06T19:36:41.471Z,3.38
2023-05-06T19:39:08.419Z,3.80
2023-05-06T19:41:35.605Z,3.33
2023-05-06T19:44:02.652Z,3.30
2023-05-06T19:46:29.401Z,3.08
2023-05-06T19:48:58.146Z,3.33
2023-05-06T19:51:25.008Z,3.25
2023-05-06T19:53:51.808Z,3.75
2023-05-06T19:56:19.729Z,3.40
2023-05-06T19:58:46.725Z,3.33
2023-05-06T20:01:13.835Z,3.15
2023-05-06T20:03:40.858Z,3.58
2023-05-06T20:06:08.166Z,3.60
2023-05-06T20:08:35.561Z,3.70
2023-05-06T20:11:03.227Z,3.72
2023-05-06T20:13:30.033Z,3.47
2023-05-06T20:15:57.699Z,3.30
2023-05-06T20:18:25.629Z,3.40
2023-05-06T20:20:52.433Z,3.88
2023-05-06T20:23:19.120Z,3.97
2023-05-06T20:25:45.858Z,4.00
2023-05-06T20:28:13.336Z,4.30
2023-05-06T20:30:40.397Z,3.72
2023-05-06T20:33:08.026Z,3.70
2023-05-06T20:35:38.524Z,4.25
2023-05-06T20:38:06.571Z,3.72
2023-05-06T20:40:35.872Z,4.15
2023-05-06T20:43:04.041Z,4.32
2023-05-06T20:45:31.802Z,3.65
2023-05-06T20:47:59.110Z,4.00
2023-05-06T20:50:26.082Z,3.30
2023-05-06T20:52:54.479Z,3.33
2023-05-06T20:55:23.487Z,3.78
2023-05-06T20:57:50.480Z,4.03
2023-05-06T21:00:18.905Z,3.97
2023-05-06T21:02:45.661Z,4.27
2023-05-06T21:05:12.765Z,4.03
2023-05-06T21:07:39.928Z,4.40
2023-05-06T21:10:07.545Z,4.28
2023-05-06T21:12:34.523Z,4.20
2023-05-06T21:15:01.425Z,3.53
2023-05-06T21:17:29.247Z,3.70
2023-05-06T21:19:56.321Z,4.33
2023-05-06T21:22:23.964Z,3.97
2023-05-06T21:24:51.429Z,3.80
2023-05-06T21:27:18.655Z,4.63
2023-05-06T21:29:45.468Z,4.70
2023-05-06T21:32:12.452Z,4.37
2023-05-06T21:34:39.382Z,4.70
2023-05-06T21:37:06.126Z,5.13
2023-05-06T21:39:33.254Z,4.93
2023-05-06T21:42:00.038Z,4.70
2023-05-06T21:44:26.754Z,5.00
2023-05-06T21:46:53.857Z,5.27
2023-05-06T21:49:22.302Z,4.53
2023-05-06T21:51:49.556Z,5.03
2023-05-06T21:54:17.383Z,5.00
2023-05-06T21:56:44.589Z,5.07
2023-05-06T21:59:11.495Z,5.47
2023-05-06T22:01:39.048Z,5.40
2023-05-06T22:04:11.438Z,6.00
2023-05-06T22:06:39.510Z,6.20
2023-05-06T22:09:09.476Z,6.30
2023-05-06T22:11:38.329Z,5.43
2023-05-06T22:14:06.696Z,5.73
2023-05-06T22:16:35.558Z,5.53
2023-05-06T22:19:03.910Z,6.40
2023-05-06T22:21:31.983Z,5.80
2023-05-06T22:23:59.611Z,7.00
2023-05-06T22:26:28.139Z,5.43
2023-05-06T22:28:58.156Z,5.93
2023-05-06T22:31:26.030Z,5.70
2023-05-06T22:33:57.542Z,5.70
2023-05-06T22:36:29.159Z,6.40
2023-05-06T22:38:56.239Z,5.80
2023-05-06T22:41:23.276Z,5.77
2023-05-06T22:43:50.103Z,6.73
2023-05-06T22:46:17.055Z,6.13
2023-05-06T22:48:47.095Z,6.03
2023-05-06T22:51:16.897Z,5.20
2023-05-06T22:53:43.963Z,5.97
2023-05-06T22:56:11.231Z,5.83
2023-05-06T22:58:38.203Z,5.97
2023-05-06T23:01:05.148Z,6.13
2023-05-06T23:03:31.872Z,6.33
2023-05-06T23:05:58.684Z,6.90
2023-05-06T23:08:25.537Z,6.40
2023-05-06T23:10:52.543Z,6.83
2023-05-06T23:13:19.599Z,6.50
2023-05-06T23:15:46.358Z,6.40
2023-05-06T23:18:13.072Z,5.97
2023-05-06T23:20:39.813Z,5.40
2023-05-06T23:23:10.533Z,6.37
2023-05-06T23:25:37.656Z,5.80
2023-05-06T23:28:04.817Z,5.90
2023-05-06T23:30:31.605Z,5.80
2023-05-06T23:32:58.446Z,6.23
2023-05-06T23:35:26.042Z,6.97
2023-05-06T23:37:52.990Z,6.70
2023-05-06T23:40:19.925Z,6.33
2023-05-06T23:42:46.649Z,6.63
2023-05-06T23:45:13.465Z,6.27
2023-05-06T23:47:40.484Z,5.80
2023-05-06T23:50:07.907Z,6.07
2023-05-06T23:52:37.315Z,6.37
2023-05-06T23:55:05.490Z,5.90
2023-05-06T23:57:32.356Z,5.60
2023-05-06T23:59:59.363Z,6.10
